Time;durP1;ratioP1;P1;durP2;ratioP2;P2;SDS_P1;SDS_P2;PMS_P1;PMS_P2;Temp;Humidity;BMP_temperature;BMP_pressure;BME280_temperature;BME280_humidity;BME280_pressure;Samples;Min_cycle;Max_cycle;Signal;HPM_P1;HPM_P2
2023/02/12 00:01:16;;;;;;;13.68;8.48;;;;;;;;;;5011538;28;20052;-79
2023/02/12 00:03:42;;;;;;;17.10;9.43;;;;;;;;;;5009769;28;20033;-79
2023/02/12 00:06:09;;;;;;;15.13;8.98;;;;;;;;;;5022329;28;20032;-79
2023/02/12 00:08:36;;;;;;;16.85;10.07;;;;;;;;;;5012548;28;20033;-79
2023/02/12 00:11:15;;;;;;;15.77;9.77;;;;;;;;;;5014999;28;20029;-79
2023/02/12 00:13:41;;;;;;;15.38;9.93;;;;;;;;;;5035650;28;20079;-79
2023/02/12 00:16:09;;;;;;;16.27;10.30;;;;;;;;;;5014809;28;20025;-79
2023/02/12 00:18:35;;;;;;;15.98;9.93;;;;;;;;;;5032989;28;20095;-79
2023/02/12 00:21:01;;;;;;;15.18;10.43;;;;;;;;;;5026483;28;20540;-79
2023/02/12 00:23:27;;;;;;;17.15;10.80;;;;;;;;;;5017780;28;20034;-79
2023/02/12 00:25:53;;;;;;;17.77;10.65;;;;;;;;;;5027491;28;20017;-79
2023/02/12 00:28:18;;;;;;;16.38;10.05;;;;;;;;;;5026002;28;20030;-78
2023/02/12 00:30:43;;;;;;;16.75;9.65;;;;;;;;;;5017011;28;20037;-79
2023/02/12 00:33:09;;;;;;;16.42;10.90;;;;;;;;;;5014353;28;20053;-79
2023/02/12 00:35:34;;;;;;;15.13;10.30;;;;;;;;;;5033224;28;20029;-79
2023/02/12 00:38:00;;;;;;;15.70;10.20;;;;;;;;;;5014095;28;20033;-79
2023/02/12 00:40:25;;;;;;;15.55;9.70;;;;;;;;;;5023408;28;20126;-79
2023/02/12 00:42:51;;;;;;;15.77;10.70;;;;;;;;;;5014477;28;20180;-79
2023/02/12 00:45:16;;;;;;;14.98;9.18;;;;;;;;;;5026876;28;20067;-79
2023/02/12 00:47:41;;;;;;;15.38;10.57;;;;;;;;;;5012596;28;20429;-79
2023/02/12 00:50:07;;;;;;;17.65;11.23;;;;;;;;;;5028857;28;20033;-79
2023/02/12 00:52:33;;;;;;;15.48;10.30;;;;;;;;;;5027720;28;20440;-79
2023/02/12 00:54:58;;;;;;;15.75;9.68;;;;;;;;;;5033881;28;20044;-79
2023/02/12 00:57:23;;;;;;;13.32;9.30;;;;;;;;;;5029796;28;20531;-79
2023/02/12 00:59:49;;;;;;;15.70;9.55;;;;;;;;;;5008413;28;20025;-79
2023/02/12 01:02:14;;;;;;;13.93;9.48;;;;;;;;;;5002475;28;20034;-79
2023/02/12 01:04:40;;;;;;;17.38;10.73;;;;;;;;;;5029828;28;20450;-79
2023/02/12 01:07:05;;;;;;;17.08;11.00;;;;;;;;;;5032522;28;20056;-79
2023/02/12 01:09:31;;;;;;;17.45;10.02;;;;;;;;;;5012511;28;20497;-79
2023/02/12 01:11:56;;;;;;;14.50;8.98;;;;;;;;;;5028153;28;20052;-79
2023/02/12 01:14:21;;;;;;;15.38;9.93;;;;;;;;;;5008854;28;20037;-79
2023/02/12 01:16:47;;;;;;;15.20;9.85;;;;;;;;;;5029069;28;20032;-79
2023/02/12 01:19:12;;;;;;;15.75;9.90;;;;;;;;;;5021762;28;20029;-79
2023/02/12 01:21:37;;;;;;;16.40;10.38;;;;;;;;;;5008881;28;20026;-79
2023/02/12 01:24:03;;;;;;;15.85;10.27;;;;;;;;;;5031144;28;20293;-79
2023/02/12 01:26:29;;;;;;;14.23;9.00;;;;;;;;;;5033100;28;20027;-79
2023/02/12 01:29:00;;;;;;;16.70;9.88;;;;;;;;;;5011325;28;20041;-79
2023/02/12 01:31:31;;;;;;;14.80;9.43;;;;;;;;;;5026528;28;20026;-79
2023/02/12 01:33:58;;;;;;;14.68;9.20;;;;;;;;;;5030120;28;20055;-79
2023/02/12 01:36:25;;;;;;;16.25;10.35;;;;;;;;;;5028956;28;20462;-79
2023/02/12 01:38:51;;;;;;;15.43;10.00;;;;;;;;;;5012481;28;20022;-79
2023/02/12 01:41:22;;;;;;;14.65;9.43;;;;;;;;;;5014957;28;20022;-79
2023/02/12 01:44:12;;;;;;;14.02;8.88;;;;;;;;;;5035808;28;20027;-79
2023/02/12 01:46:38;;;;;;;14.10;9.73;;;;;;;;;;5014163;28;20029;-79
2023/02/12 01:49:08;;;;;;;15.85;9.68;;;;;;;;;;5007021;28;20029;-79
2023/02/12 01:51:34;;;;;;;12.35;7.85;;;;;;;;;;5004082;28;20499;-79
2023/02/12 01:54:03;;;;;;;14.10;9.32;;;;;;;;;;5014860;28;20112;-79
2023/02/12 01:56:29;;;;;;;14.48;9.50;;;;;;;;;;5024780;28;20061;-79
2023/02/12 01:58:56;;;;;;;15.88;9.18;;;;;;;;;;4999442;28;20064;-79
2023/02/12 02:01:26;;;;;;;14.98;9.23;;;;;;;;;;5024849;28;20029;-79
2023/02/12 02:03:56;;;;;;;14.25;8.45;;;;;;;;;;5026691;28;20481;-79
2023/02/12 02:06:28;;;;;;;11.40;7.68;;;;;;;;;;5016331;28;20025;-79
2023/02/12 02:08:55;;;;;;;14.27;9.20;;;;;;;;;;5008514;28;20055;-79
2023/02/12 02:17:02;;;;;;;16.60;8.35;;;;;;;;;;5030085;28;20060;-79
2023/02/12 02:20:01;;;;;;;14.77;8.65;;;;;;;;;;5016266;28;20051;-79
2023/02/12 02:22:43;;;;;;;13.98;7.78;;;;;;;;;;5013438;28;20029;-79
2023/02/12 02:25:28;;;;;;;11.98;8.23;;;;;;;;;;5027996;28;20022;-79
2023/02/12 02:28:11;;;;;;;13.98;8.63;;;;;;;;;;5030526;28;20462;-79
2023/02/12 02:30:50;;;;;;;14.23;8.98;;;;;;;;;;5030102;28;20052;-79
2023/02/12 02:33:18;;;;;;;14.50;8.57;;;;;;;;;;5013214;28;20025;-79
2023/02/12 02:35:52;;;;;;;15.48;9.50;;;;;;;;;;5028322;28;20053;-79
2023/02/12 02:38:49;;;;;;;16.27;9.68;;;;;;;;;;5011238;28;20038;-79
2023/02/12 02:41:21;;;;;;;14.10;8.85;;;;;;;;;;5021626;28;20069;-79
2023/02/12 02:43:49;;;;;;;14.75;9.55;;;;;;;;;;5011944;28;20124;-79
2023/02/12 02:46:41;;;;;;;13.57;8.88;;;;;;;;;;5025652;28;20018;-79
2023/02/12 02:49:12;;;;;;;13.98;9.60;;;;;;;;;;5027911;28;20022;-79
2023/02/12 02:51:44;;;;;;;15.65;9.50;;;;;;;;;;5014920;28;20022;-79
2023/02/12 02:54:15;;;;;;;13.65;9.10;;;;;;;;;;5030380;28;20044;-79
2023/02/12 02:56:43;;;;;;;13.43;8.93;;;;;;;;;;5006674;28;20456;-79
2023/02/12 02:59:13;;;;;;;11.60;8.15;;;;;;;;;;5027904;28;20026;-79
2023/02/12 03:01:51;;;;;;;13.20;8.77;;;;;;;;;;5028852;28;20041;-79
2023/02/12 03:04:22;;;;;;;13.55;9.10;;;;;;;;;;5027901;28;20061;-79
2023/02/12 03:07:01;;;;;;;17.00;9.25;;;;;;;;;;5017508;28;20534;-79
2023/02/12 03:09:44;;;;;;;13.55;8.93;;;;;;;;;;5029388;28;20516;-79
2023/02/12 03:12:17;;;;;;;13.30;8.10;;;;;;;;;;5031663;28;20033;-79
2023/02/12 03:14:49;;;;;;;14.73;8.50;;;;;;;;;;5028579;28;21733;-79
2023/02/12 03:17:26;;;;;;;13.57;8.38;;;;;;;;;;5013833;28;20040;-79
2023/02/12 03:19:59;;;;;;;13.77;8.55;;;;;;;;;;5032286;28;20494;-79
2023/02/12 03:22:32;;;;;;;14.95;8.90;;;;;;;;;;5007874;28;20173;-79
2023/02/12 03:25:08;;;;;;;12.07;8.02;;;;;;;;;;5024571;28;20029;-79
2023/02/12 03:27:42;;;;;;;11.82;7.85;;;;;;;;;;5023408;28;20022;-79
2023/02/12 03:30:08;;;;;;;15.70;8.63;;;;;;;;;;5020097;28;20075;-79
2023/02/12 03:32:45;;;;;;;12.30;8.48;;;;;;;;;;5028950;28;20022;-79
2023/02/12 03:35:24;;;;;;;13.75;8.30;;;;;;;;;;5028697;28;20546;-79
2023/02/12 03:37:55;;;;;;;11.80;7.60;;;;;;;;;;5007325;28;20030;-78
2023/02/12 03:40:59;;;;;;;14.68;7.82;;;;;;;;;;5012223;28;20022;-79
2023/02/12 03:43:32;;;;;;;13.30;8.15;;;;;;;;;;4949682;28;20035;-79
2023/02/12 03:46:00;;;;;;;15.23;8.23;;;;;;;;;;5011610;28;20056;-79
2023/02/12 03:48:35;;;;;;;13.77;8.50;;;;;;;;;;5019375;28;20664;-79
2023/02/12 03:51:00;;;;;;;14.82;8.50;;;;;;;;;;5024577;28;20080;-79
2023/02/12 03:53:27;;;;;;;15.02;9.30;;;;;;;;;;5019699;28;20065;-79
2023/02/12 03:56:00;;;;;;;14.15;8.82;;;;;;;;;;5018832;28;20112;-79
2023/02/12 03:58:28;;;;;;;14.95;9.18;;;;;;;;;;5032390;28;20048;-79
2023/02/12 04:00:54;;;;;;;14.52;8.77;;;;;;;;;;5031027;28;20040;-79
2023/02/12 04:03:20;;;;;;;16.83;9.30;;;;;;;;;;5027687;28;20021;-79
2023/02/12 04:05:45;;;;;;;14.00;9.00;;;;;;;;;;5021488;28;20063;-78
2023/02/12 04:08:11;;;;;;;13.95;9.18;;;;;;;;;;5017382;28;20122;-79
2023/02/12 04:11:02;;;;;;;13.27;8.05;;;;;;;;;;5014041;28;20033;-79
2023/02/12 04:13:35;;;;;;;14.27;9.07;;;;;;;;;;5019051;28;20040;-79
2023/02/12 04:16:24;;;;;;;11.43;7.82;;;;;;;;;;5028459;28;20080;-79
2023/02/12 04:18:51;;;;;;;12.00;7.25;;;;;;;;;;5025053;28;20025;-79
2023/02/12 04:21:44;;;;;;;13.27;8.10;;;;;;;;;;5007940;28;20482;-79
2023/02/12 04:24:21;;;;;;;13.80;8.70;;;;;;;;;;5025504;28;20028;-79
2023/02/12 04:27:11;;;;;;;13.00;8.55;;;;;;;;;;5031174;28;20036;-79
2023/02/12 04:30:03;;;;;;;12.73;8.05;;;;;;;;;;5026337;28;20037;-79
2023/02/12 04:32:52;;;;;;;11.32;7.70;;;;;;;;;;5023015;28;20393;-79
2023/02/12 04:35:47;;;;;;;10.77;7.40;;;;;;;;;;5030145;28;20033;-79
2023/02/12 04:38:20;;;;;;;11.48;7.38;;;;;;;;;;5030598;28;20520;-79
2023/02/12 04:40:46;;;;;;;15.75;9.82;;;;;;;;;;5015281;28;20029;-79
2023/02/12 04:43:12;;;;;;;15.18;8.77;;;;;;;;;;5031593;28;20080;-79
2023/02/12 04:45:37;;;;;;;13.00;8.10;;;;;;;;;;5033161;28;20477;-79
2023/02/12 04:48:04;;;;;;;11.27;7.60;;;;;;;;;;5032207;28;20032;-79
2023/02/12 04:50:41;;;;;;;13.73;8.77;;;;;;;;;;5028816;28;20041;-79
2023/02/12 04:53:06;;;;;;;13.15;7.57;;;;;;;;;;5019512;28;20030;-79
2023/02/12 04:55:32;;;;;;;12.73;7.93;;;;;;;;;;5032559;28;20053;-79
2023/02/12 04:57:57;;;;;;;14.40;9.07;;;;;;;;;;5022739;28;20030;-79
2023/02/12 05:00:23;;;;;;;13.25;8.48;;;;;;;;;;5027353;28;20037;-79
2023/02/12 05:02:48;;;;;;;16.45;9.18;;;;;;;;;;5037361;28;20022;-79
2023/02/12 05:05:13;;;;;;;14.77;9.38;;;;;;;;;;5013075;28;20083;-79
2023/02/12 05:07:39;;;;;;;14.77;9.07;;;;;;;;;;5031462;28;20067;-79
2023/02/12 05:10:05;;;;;;;16.10;9.15;;;;;;;;;;5033573;28;20487;-79
2023/02/12 05:12:30;;;;;;;17.17;10.80;;;;;;;;;;5035455;28;20088;-79
2023/02/12 05:14:56;;;;;;;16.15;10.38;;;;;;;;;;5034783;28;20103;-79
2023/02/12 05:17:22;;;;;;;17.05;10.02;;;;;;;;;;5020791;28;20025;-79
2023/02/12 05:19:48;;;;;;;15.02;9.63;;;;;;;;;;5015914;28;20087;-79
2023/02/12 05:22:13;;;;;;;15.15;9.68;;;;;;;;;;5030335;28;20026;-79
2023/02/12 05:24:39;;;;;;;17.05;9.60;;;;;;;;;;5035554;28;20084;-79
2023/02/12 05:27:04;;;;;;;14.90;9.27;;;;;;;;;;5030403;28;20022;-79
2023/02/12 05:29:30;;;;;;;16.85;10.25;;;;;;;;;;5016610;28;20426;-79
2023/02/12 05:31:55;;;;;;;18.77;11.45;;;;;;;;;;5031513;28;20076;-79
2023/02/12 05:34:21;;;;;;;16.77;10.70;;;;;;;;;;5022028;28;20100;-79
2023/02/12 05:36:46;;;;;;;19.05;10.98;;;;;;;;;;5013549;28;20064;-79
2023/02/12 05:39:12;;;;;;;16.67;10.45;;;;;;;;;;5025308;28;20038;-79
2023/02/12 05:41:37;;;;;;;17.40;11.02;;;;;;;;;;5002362;28;20033;-78
2023/02/12 05:44:05;;;;;;;13.75;9.02;;;;;;;;;;5025470;28;20034;-79
2023/02/12 05:46:31;;;;;;;17.40;10.35;;;;;;;;;;5031539;28;20025;-79
2023/02/12 05:48:56;;;;;;;16.90;11.20;;;;;;;;;;5030653;28;20489;-79
2023/02/12 05:51:24;;;;;;;17.85;11.18;;;;;;;;;;5014763;28;20035;-79
2023/02/12 05:53:55;;;;;;;18.00;10.70;;;;;;;;;;5032549;28;20036;-79
2023/02/12 05:56:29;;;;;;;17.05;10.82;;;;;;;;;;5025057;28;20462;-79
2023/02/12 05:59:06;;;;;;;16.60;10.23;;;;;;;;;;5015072;28;20030;-79
2023/02/12 06:01:40;;;;;;;16.55;9.95;;;;;;;;;;5024024;28;20033;-79
2023/02/12 06:04:06;;;;;;;;;;;;;;;;;;5026892;28;20033;-79
2023/02/12 06:06:32;;;;;;;15.32;9.52;;;;;;;;;;5009298;28;19917;-79
2023/02/12 06:08:58;;;;;;;17.77;10.45;;;;;;;;;;5014353;28;20100;-79
2023/02/12 06:11:24;;;;;;;14.90;10.05;;;;;;;;;;5015466;28;20029;-79
2023/02/12 06:13:50;;;;;;;16.23;10.32;;;;;;;;;;5029098;28;20362;-79
2023/02/12 06:16:21;;;;;;;16.90;10.52;;;;;;;;;;5032291;28;20025;-79
2023/02/12 06:18:47;;;;;;;17.63;11.20;;;;;;;;;;5029577;28;20585;-79
2023/02/12 06:21:14;;;;;;;17.00;10.30;;;;;;;;;;5017596;28;20048;-79
2023/02/12 06:23:39;;;;;;;14.93;9.45;;;;;;;;;;5029503;28;20485;-79
2023/02/12 06:26:04;;;;;;;15.18;9.82;;;;;;;;;;5036908;28;20029;-79
2023/02/12 06:28:30;;;;;;;16.02;9.68;;;;;;;;;;5029753;28;20030;-79
2023/02/12 06:30:55;;;;;;;18.33;10.73;;;;;;;;;;5030632;28;20488;-79
2023/02/12 06:33:21;;;;;;;16.52;10.25;;;;;;;;;;5019341;28;20120;-79
2023/02/12 06:35:46;;;;;;;14.10;9.38;;;;;;;;;;5028766;28;20041;-79
2023/02/12 06:38:12;;;;;;;15.05;9.40;;;;;;;;;;5015191;28;20025;-79
2023/02/12 06:40:37;;;;;;;18.95;10.02;;;;;;;;;;5027328;28;20033;-79
2023/02/12 06:43:02;;;;;;;15.68;10.02;;;;;;;;;;5000696;28;20025;-79
2023/02/12 06:45:28;;;;;;;15.77;10.18;;;;;;;;;;5032286;28;20032;-79
2023/02/12 06:47:53;;;;;;;16.98;10.07;;;;;;;;;;5025180;28;20029;-79
2023/02/12 06:50:19;;;;;;;17.85;10.57;;;;;;;;;;5028579;28;20447;-78
2023/02/12 06:52:44;;;;;;;16.80;11.18;;;;;;;;;;5028096;28;20526;-79
2023/02/12 06:55:10;;;;;;;18.20;10.48;;;;;;;;;;5031801;28;20032;-79
2023/02/12 06:57:35;;;;;;;17.33;10.98;;;;;;;;;;5030342;28;20147;-79
2023/02/12 07:00:00;;;;;;;17.05;9.68;;;;;;;;;;5016543;28;20065;-79
2023/02/12 07:02:26;;;;;;;14.25;8.65;;;;;;;;;;5018142;28;20030;-79
2023/02/12 07:04:51;;;;;;;15.73;9.25;;;;;;;;;;5027879;28;20030;-79
2023/02/12 07:07:17;;;;;;;16.58;9.55;;;;;;;;;;5015864;28;20033;-79
2023/02/12 07:09:42;;;;;;;15.27;9.15;;;;;;;;;;5030504;28;20717;-79
2023/02/12 07:12:08;;;;;;;16.45;9.70;;;;;;;;;;5013711;28;20033;-79
2023/02/12 07:14:33;;;;;;;15.60;9.40;;;;;;;;;;5018916;28;20032;-79
2023/02/12 07:17:02;;;;;;;14.93;8.57;;;;;;;;;;5011528;28;20453;-79
2023/02/12 07:19:28;;;;;;;15.25;8.50;;;;;;;;;;5030705;28;20064;-79
2023/02/12 07:21:53;;;;;;;15.20;8.90;;;;;;;;;;5038942;28;20397;-79
2023/02/12 07:24:19;;;;;;;15.35;9.40;;;;;;;;;;5014278;28;20029;-79
2023/02/12 07:26:44;;;;;;;15.52;9.85;;;;;;;;;;5033401;28;20029;-79
2023/02/12 07:29:10;;;;;;;17.75;9.93;;;;;;;;;;5015715;28;20025;-79
2023/02/12 07:31:35;;;;;;;17.25;10.25;;;;;;;;;;5026792;28;20021;-79
2023/02/12 07:34:01;;;;;;;17.05;10.25;;;;;;;;;;5032402;28;20051;-79
2023/02/12 07:36:31;;;;;;;12.68;7.40;;;;;;;;;;5026097;28;20473;-79
2023/02/12 07:38:58;;;;;;;15.98;9.45;;;;;;;;;;5031492;28;20508;-79
2023/02/12 07:41:26;;;;;;;16.75;10.15;;;;;;;;;;5026917;28;20124;-79
2023/02/12 07:44:02;;;;;;;16.15;10.20;;;;;;;;;;5016748;28;20022;-79
2023/02/12 07:46:38;;;;;;;15.05;9.73;;;;;;;;;;5017946;28;20025;-79
2023/02/12 07:49:05;;;;;;;17.75;10.15;;;;;;;;;;5022090;28;20022;-79
2023/02/12 07:51:32;;;;;;;17.45;10.43;;;;;;;;;;5021390;28;20032;-79
2023/02/12 07:53:59;;;;;;;17.02;10.32;;;;;;;;;;5022191;28;20030;-79
2023/02/12 07:56:31;;;;;;;18.30;10.23;;;;;;;;;;5022997;28;20382;-79
2023/02/12 07:58:59;;;;;;;17.15;10.60;;;;;;;;;;5023328;28;20041;-79
2023/02/12 08:01:30;;;;;;;18.08;10.38;;;;;;;;;;5027357;28;20025;-79
2023/02/12 08:04:11;;;;;;;17.73;10.40;;;;;;;;;;5022089;28;20022;-79
2023/02/12 08:06:39;;;;;;;17.58;10.20;;;;;;;;;;5019934;28;20025;-79
2023/02/12 08:09:08;;;;;;;19.65;10.48;;;;;;;;;;5022432;28;20465;-79
2023/02/12 08:11:35;;;;;;;17.45;10.48;;;;;;;;;;5020669;28;20049;-79
2023/02/12 08:14:01;;;;;;;18.95;10.70;;;;;;;;;;5004666;28;20032;-79
2023/02/12 08:16:27;;;;;;;17.88;11.00;;;;;;;;;;5025436;28;20112;-79
2023/02/12 08:18:54;;;;;;;18.48;11.10;;;;;;;;;;5024698;28;20449;-79
2023/02/12 08:21:25;;;;;;;19.27;10.85;;;;;;;;;;5011398;28;20481;-79
2023/02/12 08:23:53;;;;;;;18.30;10.80;;;;;;;;;;5015901;28;20021;-79
2023/02/12 08:26:21;;;;;;;20.23;10.95;;;;;;;;;;5031803;28;20053;-79
2023/02/12 08:28:53;;;;;;;19.08;10.95;;;;;;;;;;5016604;28;20039;-79
2023/02/12 08:31:21;;;;;;;18.85;11.00;;;;;;;;;;5023446;28;20068;-78
2023/02/12 08:33:47;;;;;;;20.88;10.73;;;;;;;;;;5018650;28;20320;-79
2023/02/12 08:36:16;;;;;;;18.42;11.20;;;;;;;;;;5025891;28;20462;-79
2023/02/12 08:38:43;;;;;;;19.48;11.40;;;;;;;;;;5015557;28;20052;-79
2023/02/12 08:41:11;;;;;;;19.42;11.48;;;;;;;;;;5022172;28;20426;-79
2023/02/12 08:43:37;;;;;;;21.77;11.93;;;;;;;;;;5025451;28;20025;-79
2023/02/12 08:46:05;;;;;;;18.17;11.05;;;;;;;;;;5027582;28;20020;-79
2023/02/12 08:48:31;;;;;;;19.48;11.40;;;;;;;;;;5017254;28;20044;-79
2023/02/12 08:51:03;;;;;;;19.63;11.35;;;;;;;;;;5026205;28;20036;-79
2023/02/12 08:53:29;;;;;;;20.25;11.32;;;;;;;;;;5026955;28;20057;-79
2023/02/12 08:55:54;;;;;;;20.02;11.18;;;;;;;;;;5023152;28;20394;-79
2023/02/12 08:58:19;;;;;;;21.17;11.18;;;;;;;;;;5021123;28;20109;-79
2023/02/12 09:00:45;;;;;;;19.75;11.90;;;;;;;;;;5021744;28;20036;-79
2023/02/12 09:03:10;;;;;;;20.58;12.18;;;;;;;;;;5028918;28;20723;-79
2023/02/12 09:05:39;;;;;;;21.25;11.27;;;;;;;;;;5031375;28;20029;-79
2023/02/12 09:08:05;;;;;;;22.35;12.38;;;;;;;;;;5037141;28;20029;-79
2023/02/12 09:10:31;;;;;;;20.55;11.75;;;;;;;;;;5039293;28;20044;-79
2023/02/12 09:12:56;;;;;;;21.40;12.13;;;;;;;;;;5025880;28;20029;-79
2023/02/12 09:15:21;;;;;;;22.85;11.98;;;;;;;;;;5036659;28;20075;-79
2023/02/12 09:17:47;;;;;;;22.73;11.80;;;;;;;;;;5033531;28;20030;-79
2023/02/12 09:20:12;;;;;;;21.83;12.05;;;;;;;;;;5014262;28;20060;-79
2023/02/12 09:22:37;;;;;;;24.38;13.57;;;;;;;;;;5020777;28;20690;-79
2023/02/12 09:25:05;;;;;;;22.77;12.48;;;;;;;;;;5022607;28;20961;-79
2023/02/12 09:27:30;;;;;;;21.75;13.32;;;;;;;;;;5027446;28;20473;-79
2023/02/12 09:29:56;;;;;;;21.50;13.18;;;;;;;;;;5009185;28;20033;-79
2023/02/12 09:32:21;;;;;;;21.45;12.45;;;;;;;;;;5026089;28;20032;-79
2023/02/12 09:34:47;;;;;;;19.42;12.25;;;;;;;;;;5029868;28;20021;-79
2023/02/12 09:37:12;;;;;;;19.23;11.80;;;;;;;;;;5012778;28;20393;-79
2023/02/12 09:39:38;;;;;;;18.48;11.73;;;;;;;;;;5034840;28;20025;-79
2023/02/12 09:42:31;;;;;;;18.33;11.23;;;;;;;;;;5008776;28;20084;-79
2023/02/12 09:45:11;;;;;;;18.23;10.50;;;;;;;;;;5029822;28;20490;-79
2023/02/12 09:48:11;;;;;;;18.20;11.02;;;;;;;;;;5030598;28;20033;-79
2023/02/12 09:50:43;;;;;;;18.33;10.82;;;;;;;;;;5025688;28;20112;-79
2023/02/12 09:53:13;;;;;;;21.13;12.82;;;;;;;;;;5022268;28;20037;-79
2023/02/12 09:55:39;;;;;;;18.33;10.90;;;;;;;;;;5028510;28;20437;-79
2023/02/12 09:58:13;;;;;;;18.33;11.43;;;;;;;;;;5014989;28;20037;-79
2023/02/12 10:00:38;;;;;;;19.23;11.90;;;;;;;;;;5037026;28;20500;-79
2023/02/12 10:03:12;;;;;;;17.10;11.38;;;;;;;;;;5029110;28;20048;-79
2023/02/12 10:05:39;;;;;;;17.35;10.52;;;;;;;;;;5021036;28;20124;-79
2023/02/12 10:08:11;;;;;;;18.58;11.65;;;;;;;;;;5009123;28;20137;-79
2023/02/12 10:10:54;;;;;;;21.08;11.35;;;;;;;;;;5026505;28;20547;-79
2023/02/12 10:13:55;;;;;;;23.25;11.80;;;;;;;;;;5020277;28;20104;-79
2023/02/12 10:16:45;;;;;;;18.73;10.82;;;;;;;;;;5023337;28;20063;-79
2023/02/12 10:19:15;;;;;;;19.30;10.50;;;;;;;;;;5026748;28;20026;-79
2023/02/12 10:22:06;;;;;;;16.77;10.50;;;;;;;;;;5013902;28;20022;-79
2023/02/12 10:24:42;;;;;;;18.60;10.00;;;;;;;;;;5027623;28;20072;-79
2023/02/12 10:27:19;;;;;;;17.50;10.25;;;;;;;;;;5031229;28;20104;-79
2023/02/12 10:29:46;;;;;;;16.50;9.98;;;;;;;;;;5031524;28;20057;-79
2023/02/12 10:32:28;;;;;;;16.67;10.25;;;;;;;;;;5032659;28;20025;-79
2023/02/12 10:34:56;;;;;;;17.25;11.02;;;;;;;;;;5024351;28;20037;-79
2023/02/12 10:37:49;;;;;;;17.73;11.00;;;;;;;;;;5032860;28;20571;-79
2023/02/12 10:40:17;;;;;;;20.27;10.60;;;;;;;;;;5027812;28;20091;-79
2023/02/12 10:42:46;;;;;;;18.55;10.95;;;;;;;;;;5014900;28;20029;-79
2023/02/12 10:45:17;;;;;;;17.90;10.68;;;;;;;;;;5025877;28;20492;-79
2023/02/12 10:47:44;;;;;;;18.33;11.15;;;;;;;;;;5032065;28;20033;-79
2023/02/12 10:50:31;;;;;;;17.40;10.68;;;;;;;;;;5014658;28;20017;-79
2023/02/12 10:53:02;;;;;;;16.90;10.07;;;;;;;;;;5022973;28;20064;-79
2023/02/12 10:55:27;;;;;;;18.55;10.90;;;;;;;;;;5028322;28;20449;-79
2023/02/12 10:57:53;;;;;;;18.60;11.50;;;;;;;;;;5020668;28;20091;-79
2023/02/12 11:00:30;;;;;;;19.40;11.40;;;;;;;;;;5030537;28;20029;-79
2023/02/12 11:03:10;;;;;;;21.50;11.95;;;;;;;;;;5024795;28;20021;-79
2023/02/12 11:05:38;;;;;;;18.42;10.85;;;;;;;;;;5024202;28;20021;-79
2023/02/12 11:08:04;;;;;;;16.55;10.48;;;;;;;;;;5014160;28;20035;-79
2023/02/12 11:10:36;;;;;;;19.27;11.50;;;;;;;;;;5031617;28;20500;-79
2023/02/12 11:13:02;;;;;;;20.02;11.10;;;;;;;;;;5021443;28;20100;-79
2023/02/12 11:15:45;;;;;;;20.35;11.40;;;;;;;;;;5006146;28;20068;-79
2023/02/12 11:18:20;;;;;;;20.27;11.03;;;;;;;;;;5025709;28;20025;-79
2023/02/12 11:20:59;;;;;;;16.85;10.70;;;;;;;;;;5031491;28;20065;-78
2023/02/12 11:23:35;;;;;;;17.48;10.77;;;;;;;;;;5021605;28;20025;-79
2023/02/12 11:26:20;;;;;;;17.98;11.30;;;;;;;;;;5007849;28;20018;-79
2023/02/12 11:28:55;;;;;;;16.85;10.40;;;;;;;;;;5038163;28;20116;-78
2023/02/12 11:31:27;;;;;;;17.83;10.55;;;;;;;;;;5024760;28;20474;-79
2023/02/12 11:34:11;;;;;;;20.38;10.90;;;;;;;;;;5030341;28;20029;-79
2023/02/12 11:36:50;;;;;;;19.08;10.80;;;;;;;;;;5013594;28;20088;-78
2023/02/12 11:39:26;;;;;;;18.65;10.40;;;;;;;;;;5021408;28;20061;-79
2023/02/12 11:42:05;;;;;;;16.58;10.25;;;;;;;;;;5021728;28;20029;-79
2023/02/12 11:44:39;;;;;;;18.65;10.23;;;;;;;;;;5019561;28;20553;-78
2023/02/12 11:47:10;;;;;;;17.77;9.50;;;;;;;;;;5028814;28;20052;-79
2023/02/12 11:49:55;;;;;;;18.38;10.15;;;;;;;;;;5033467;28;20493;-79
2023/02/12 11:52:24;;;;;;;14.93;9.80;;;;;;;;;;5027352;28;20040;-79
2023/02/12 11:54:52;;;;;;;15.30;9.02;;;;;;;;;;5022278;28;20064;-78
2023/02/12 11:57:38;;;;;;;16.00;9.35;;;;;;;;;;5016811;28;20072;-79
2023/02/12 12:00:13;;;;;;;16.10;9.57;;;;;;;;;;5022100;28;20026;-79
2023/02/12 12:02:44;;;;;;;16.25;9.38;;;;;;;;;;5018059;28;20068;-79
2023/02/12 12:05:18;;;;;;;17.88;9.35;;;;;;;;;;5031604;28;20064;-78
2023/02/12 12:07:54;;;;;;;15.18;9.00;;;;;;;;;;5014027;28;20512;-79
2023/02/12 12:10:46;;;;;;;16.33;9.85;;;;;;;;;;5025890;28;20569;-79
2023/02/12 12:13:21;;;;;;;14.15;8.60;;;;;;;;;;5037071;28;20473;-79
2023/02/12 12:21:46;;;;;;;13.82;8.70;;;;;;;;;;5029761;28;20071;-79
2023/02/12 12:24:40;;;;;;;13.35;8.50;;;;;;;;;;5009836;28;20096;-79
2023/02/12 12:30:15;;;;;;;12.55;7.45;;;;;;;;;;5031295;28;20059;-79
2023/02/12 12:32:43;;;;;;;12.77;7.97;;;;;;;;;;5016762;28;20025;-78
2023/02/12 12:35:14;;;;;;;15.18;8.88;;;;;;;;;;5036144;28;20030;-78
2023/02/12 12:38:21;;;;;;;13.32;7.93;;;;;;;;;;5010796;28;20033;-78
2023/02/12 12:41:06;;;;;;;13.80;8.48;;;;;;;;;;5004192;28;20852;-79
2023/02/12 12:43:51;;;;;;;15.05;9.20;;;;;;;;;;5032889;28;20032;-78
2023/02/12 12:46:38;;;;;;;13.70;8.85;;;;;;;;;;5033579;28;20548;-78
2023/02/12 12:49:15;;;;;;;14.57;8.90;;;;;;;;;;5035309;28;20033;-79
2023/02/12 12:52:18;;;;;;;15.90;8.88;;;;;;;;;;5038106;28;20029;-78
2023/02/12 12:55:16;;;;;;;14.13;8.20;;;;;;;;;;5029797;28;20033;-79
2023/02/12 12:58:17;;;;;;;13.25;7.75;;;;;;;;;;5028630;28;20046;-78
2023/02/12 13:01:22;;;;;;;14.40;8.38;;;;;;;;;;5007742;28;20129;-79
2023/02/12 13:03:47;;;;;;;13.85;7.68;;;;;;;;;;5031267;28;20097;-78
2023/02/12 13:06:38;;;;;;;13.07;8.07;;;;;;;;;;5013202;28;20049;-78
2023/02/12 13:09:35;;;;;;;13.52;7.55;;;;;;;;;;5031736;28;20099;-78
2023/02/12 13:12:21;;;;;;;13.68;7.63;;;;;;;;;;5016099;28;20646;-78
2023/02/12 13:14:57;;;;;;;15.90;8.13;;;;;;;;;;5027419;28;20520;-79
2023/02/12 13:17:31;;;;;;;14.80;8.23;;;;;;;;;;5013370;28;20029;-79
2023/02/12 13:20:15;;;;;;;13.75;8.25;;;;;;;;;;5007723;28;20044;-79
2023/02/12 13:22:57;;;;;;;13.98;8.23;;;;;;;;;;5015940;28;20457;-78
2023/02/12 13:25:58;;;;;;;15.27;8.82;;;;;;;;;;5028658;28;20101;-78
2023/02/12 13:28:33;;;;;;;14.40;8.73;;;;;;;;;;5008440;28;20038;-79
2023/02/12 13:31:02;;;;;;;14.40;7.82;;;;;;;;;;5023111;28;20021;-79
2023/02/12 13:33:38;;;;;;;13.20;8.10;;;;;;;;;;5011322;28;20049;-79
2023/02/12 13:36:06;;;;;;;14.55;8.20;;;;;;;;;;5025412;28;20045;-78
2023/02/12 13:38:38;;;;;;;14.00;7.95;;;;;;;;;;5027532;28;20029;-79
2023/02/12 13:41:09;;;;;;;14.30;7.97;;;;;;;;;;5020486;28;20124;-79
2023/02/12 13:43:56;;;;;;;13.63;8.00;;;;;;;;;;5002279;28;21001;-79
2023/02/12 13:46:48;;;;;;;12.23;7.95;;;;;;;;;;5024346;28;20025;-79
2023/02/12 13:49:26;;;;;;;13.05;7.50;;;;;;;;;;5011338;28;20508;-79
2023/02/12 13:52:01;;;;;;;16.15;8.63;;;;;;;;;;5020082;28;20108;-78
2023/02/12 13:55:01;;;;;;;15.65;8.23;;;;;;;;;;5030910;28;20056;-78
2023/02/12 13:57:26;;;;;;;14.18;7.68;;;;;;;;;;5006695;28;20560;-79
2023/02/12 13:59:53;;;;;;;16.15;8.50;;;;;;;;;;5021525;28;20033;-79
2023/02/12 14:02:36;;;;;;;14.63;8.35;;;;;;;;;;5021241;28;20052;-79
2023/02/12 14:05:12;;;;;;;16.20;9.15;;;;;;;;;;5029110;28;20109;-79
2023/02/12 14:07:45;;;;;;;16.13;8.73;;;;;;;;;;5020777;28;20049;-79
2023/02/12 14:10:28;;;;;;;15.85;8.25;;;;;;;;;;5025755;28;20485;-79
2023/02/12 14:13:06;;;;;;;14.90;8.25;;;;;;;;;;5026091;28;20037;-79
2023/02/12 14:15:35;;;;;;;17.00;8.82;;;;;;;;;;5014025;28;20115;-79
2023/02/12 14:18:28;;;;;;;17.55;9.38;;;;;;;;;;5005834;28;20124;-79
2023/02/12 14:21:12;;;;;;;15.82;8.85;;;;;;;;;;5024291;28;20040;-79
2023/02/12 14:23:41;;;;;;;17.90;9.18;;;;;;;;;;5021192;28;20053;-78
2023/02/12 14:26:18;;;;;;;15.55;9.45;;;;;;;;;;5024755;28;20025;-79
2023/02/12 14:29:05;;;;;;;16.13;9.00;;;;;;;;;;5022649;28;20152;-79
2023/02/12 14:31:38;;;;;;;15.93;8.85;;;;;;;;;;5047739;28;20739;-77
2023/02/12 14:34:03;;;;;;;17.10;10.05;;;;;;;;;;5044879;28;20082;-77
2023/02/12 14:36:32;;;;;;;19.63;10.80;;;;;;;;;;5038257;28;20039;-77
2023/02/12 14:39:04;;;;;;;19.77;11.05;;;;;;;;;;5052089;28;20424;-79
2023/02/12 14:41:33;;;;;;;21.83;12.57;;;;;;;;;;5035250;28;20048;-79
2023/02/12 14:44:16;;;;;;;21.13;11.43;;;;;;;;;;5025407;28;20033;-80
2023/02/12 14:46:48;;;;;;;21.73;10.05;;;;;;;;;;5033929;28;20033;-79
2023/02/12 14:49:25;;;;;;;17.90;9.45;;;;;;;;;;5035401;28;20478;-79
2023/02/12 14:52:12;;;;;;;16.08;9.50;;;;;;;;;;5037283;28;20063;-79
2023/02/12 14:54:41;;;;;;;16.20;8.48;;;;;;;;;;5039007;28;20035;-80
2023/02/12 14:57:18;;;;;;;17.08;9.45;;;;;;;;;;5036612;28;20510;-80
2023/02/12 14:59:46;;;;;;;15.00;7.97;;;;;;;;;;5031726;28;20328;-80
2023/02/12 15:02:25;;;;;;;15.52;8.45;;;;;;;;;;5049050;28;20438;-79
2023/02/12 15:04:53;;;;;;;16.90;9.23;;;;;;;;;;5035428;28;20028;-80
2023/02/12 15:07:30;;;;;;;14.85;8.48;;;;;;;;;;5039940;28;20029;-80